Time;durP1;ratioP1;P1;durP2;ratioP2;P2;SDS_P1;SDS_P2;PMS_P1;PMS_P2;Temp;Humidity;BMP_temperature;BMP_pressure;BME280_temperature;BME280_humidity;BME280_pressure;Samples;Min_cycle;Max_cycle;Signal;HPM_P1;HPM_P2
2021/06/12 00:02:14;;;;;;;3.10;2.10;;;;;;;;;;5139324;27;20767;-70
2021/06/12 00:04:42;;;;;;;3.33;1.80;;;;;;;;;;5141614;27;20212;-70
2021/06/12 00:07:10;;;;;;;3.63;2.03;;;;;;;;;;5141499;27;20211;-70
2021/06/12 00:09:37;;;;;;;2.33;2.20;;;;;;;;;;5141421;27;20204;-70
2021/06/12 00:12:05;;;;;;;2.30;2.20;;;;;;;;;;5135847;27;20259;-70
2021/06/12 00:14:33;;;;;;;4.60;2.40;;;;;;;;;;5135661;27;20593;-70
2021/06/12 00:17:00;;;;;;;1.90;1.80;;;;;;;;;;5141719;27;20204;-69
2021/06/12 00:19:27;;;;;;;4.47;2.40;;;;;;;;;;5141359;27;20813;-70
2021/06/12 00:21:54;;;;;;;2.43;2.23;;;;;;;;;;5141168;27;20231;-70
2021/06/12 00:24:23;;;;;;;2.40;2.03;;;;;;;;;;5141232;27;20212;-70
2021/06/12 00:26:50;;;;;;;4.80;2.37;;;;;;;;;;5140698;27;20212;-70
2021/06/12 00:29:17;;;;;;;1.87;1.77;;;;;;;;;;5141053;27;20207;-70
2021/06/12 00:31:44;;;;;;;7.30;2.07;;;;;;;;;;5141132;27;20231;-70
2021/06/12 00:34:12;;;;;;;2.30;2.10;;;;;;;;;;5142036;27;20264;-70
2021/06/12 00:36:39;;;;;;;2.87;2.03;;;;;;;;;;5141907;27;20250;-70
2021/06/12 00:39:06;;;;;;;2.30;2.03;;;;;;;;;;5141257;27;20200;-70
2021/06/12 00:41:35;;;;;;;2.23;1.90;;;;;;;;;;5140919;27;20265;-70
2021/06/12 00:44:02;;;;;;;2.60;2.10;;;;;;;;;;5140893;27;20204;-70
2021/06/12 00:46:29;;;;;;;1.90;1.80;;;;;;;;;;5141427;27;20200;-69
2021/06/12 00:48:57;;;;;;;2.47;1.80;;;;;;;;;;5141006;27;20727;-68
2021/06/12 00:51:24;;;;;;;2.30;2.10;;;;;;;;;;5140844;27;20235;-69
2021/06/12 00:53:51;;;;;;;2.13;1.93;;;;;;;;;;5140312;27;20207;-70
2021/06/12 00:56:20;;;;;;;3.50;2.10;;;;;;;;;;5139968;27;20208;-69
2021/06/12 00:58:49;;;;;;;2.50;1.97;;;;;;;;;;5139800;27;20232;-69
2021/06/12 01:01:17;;;;;;;4.70;2.33;;;;;;;;;;5139986;27;20222;-70
2021/06/12 01:03:45;;;;;;;2.23;2.13;;;;;;;;;;5139887;27;20207;-69
2021/06/12 01:06:13;;;;;;;3.10;2.40;;;;;;;;;;5139898;27;20256;-68
2021/06/12 01:08:41;;;;;;;2.27;2.17;;;;;;;;;;5140170;27;20607;-70
2021/06/12 01:11:09;;;;;;;2.60;2.40;;;;;;;;;;5140164;27;20222;-69
2021/06/12 01:13:43;;;;;;;2.33;2.00;;;;;;;;;;5126509;27;20261;-70
2021/06/12 01:16:14;;;;;;;1.73;1.67;;;;;;;;;;5140379;27;20213;-68
2021/06/12 01:18:44;;;;;;;2.23;2.07;;;;;;;;;;5140557;27;20205;-69
2021/06/12 01:21:15;;;;;;;2.27;2.07;;;;;;;;;;5140525;27;20201;-68
2021/06/12 01:24:04;;;;;;;2.40;2.20;;;;;;;;;;5140348;27;20208;-68
2021/06/12 01:26:40;;;;;;;2.43;2.23;;;;;;;;;;5139549;27;20211;-69
2021/06/12 01:29:14;;;;;;;3.43;2.20;;;;;;;;;;5139489;27;20324;-69
2021/06/12 01:31:43;;;;;;;1.87;1.77;;;;;;;;;;5139474;27;20240;-68
2021/06/12 01:34:11;;;;;;;1.73;1.63;;;;;;;;;;5139805;27;20616;-68
2021/06/12 01:36:40;;;;;;;2.10;2.00;;;;;;;;;;5139407;27;20281;-69
2021/06/12 01:39:07;;;;;;;2.33;2.10;;;;;;;;;;5139409;27;20205;-69
2021/06/12 01:41:36;;;;;;;1.87;1.77;;;;;;;;;;5139544;27;20226;-69
2021/06/12 01:44:03;;;;;;;1.93;1.83;;;;;;;;;;5139648;27;20258;-69
2021/06/12 01:46:30;;;;;;;4.17;1.90;;;;;;;;;;5140077;27;20572;-69
2021/06/12 01:49:00;;;;;;;5.27;2.20;;;;;;;;;;5139881;27;20232;-69
2021/06/12 01:51:27;;;;;;;1.90;1.60;;;;;;;;;;5139706;27;20224;-69
2021/06/12 01:53:56;;;;;;;2.97;1.83;;;;;;;;;;5139543;27;20209;-69
2021/06/12 01:56:23;;;;;;;3.40;1.87;;;;;;;;;;5139694;27;20213;-69
2021/06/12 01:58:51;;;;;;;3.43;1.63;;;;;;;;;;5139413;27;20235;-69
2021/06/12 02:01:19;;;;;;;3.30;1.90;;;;;;;;;;5139801;27;20283;-69
2021/06/12 02:03:47;;;;;;;1.90;1.80;;;;;;;;;;5140093;27;20206;-69
2021/06/12 02:06:17;;;;;;;2.97;1.70;;;;;;;;;;5139768;27;20201;-69
2021/06/12 02:08:45;;;;;;;2.23;1.63;;;;;;;;;;5139613;27;20205;-69
2021/06/12 02:11:13;;;;;;;1.83;1.73;;;;;;;;;;5139149;27;20274;-69
2021/06/12 02:13:41;;;;;;;2.00;1.90;;;;;;;;;;5128187;27;20209;-69
2021/06/12 02:16:08;;;;;;;1.70;1.60;;;;;;;;;;5139459;27;20669;-69
2021/06/12 02:18:36;;;;;;;3.50;1.80;;;;;;;;;;5139466;27;20218;-69
2021/06/12 02:21:03;;;;;;;1.70;1.57;;;;;;;;;;5139307;27;20201;-69
2021/06/12 02:23:32;;;;;;;1.80;1.57;;;;;;;;;;5139386;27;20632;-69
2021/06/12 02:25:59;;;;;;;2.57;2.17;;;;;;;;;;5138622;27;20206;-69
2021/06/12 02:28:33;;;;;;;3.20;1.90;;;;;;;;;;5138965;27;20574;-69
2021/06/12 02:31:02;;;;;;;1.83;1.63;;;;;;;;;;5138917;27;20238;-69
2021/06/12 02:33:31;;;;;;;1.93;1.77;;;;;;;;;;5139141;27;20230;-69
2021/06/12 02:36:00;;;;;;;3.37;2.00;;;;;;;;;;5139163;27;20239;-69
2021/06/12 02:38:27;;;;;;;2.03;1.73;;;;;;;;;;5139146;27;20227;-69
2021/06/12 02:40:56;;;;;;;2.20;2.00;;;;;;;;;;5138951;27;20557;-69
2021/06/12 02:43:24;;;;;;;2.80;2.00;;;;;;;;;;5138755;27;20209;-69
2021/06/12 02:45:51;;;;;;;1.80;1.70;;;;;;;;;;5138655;27;20270;-69
2021/06/12 02:48:19;;;;;;;2.33;1.67;;;;;;;;;;5139287;28;20201;-69
2021/06/12 02:50:47;;;;;;;1.63;1.53;;;;;;;;;;5139383;28;20568;-69
2021/06/12 02:53:16;;;;;;;1.80;1.70;;;;;;;;;;5138962;28;20653;-69
2021/06/12 02:55:44;;;;;;;5.17;1.70;;;;;;;;;;5139051;28;20210;-69
2021/06/12 02:58:14;;;;;;;2.47;2.03;;;;;;;;;;5138800;28;20214;-69
2021/06/12 03:00:43;;;;;;;1.60;1.50;;;;;;;;;;5138898;28;20264;-69
2021/06/12 03:03:12;;;;;;;2.20;2.00;;;;;;;;;;5138963;28;20314;-69
2021/06/12 03:05:41;;;;;;;1.90;1.80;;;;;;;;;;5139036;28;20637;-69
2021/06/12 03:08:09;;;;;;;2.83;1.70;;;;;;;;;;5138565;28;20261;-68
2021/06/12 03:10:36;;;;;;;2.50;1.77;;;;;;;;;;5138952;28;20204;-69
2021/06/12 03:13:04;;;;;;;2.00;1.90;;;;;;;;;;5126689;28;20274;-68
2021/06/12 03:15:34;;;;;;;2.73;1.73;;;;;;;;;;5138800;28;20209;-68
2021/06/12 03:18:03;;;;;;;1.77;1.67;;;;;;;;;;5139095;28;20204;-67
2021/06/12 03:20:31;;;;;;;6.77;2.07;;;;;;;;;;5138717;28;20231;-68
2021/06/12 03:23:02;;;;;;;2.13;1.70;;;;;;;;;;5138501;28;20225;-69
2021/06/12 03:25:30;;;;;;;1.83;1.67;;;;;;;;;;5138506;28;20203;-68
2021/06/12 03:27:57;;;;;;;1.97;1.80;;;;;;;;;;5138085;28;20239;-69
2021/06/12 03:30:29;;;;;;;1.90;1.73;;;;;;;;;;5138347;28;20762;-69
2021/06/12 03:32:58;;;;;;;3.30;1.80;;;;;;;;;;5138197;28;20235;-69
2021/06/12 03:35:26;;;;;;;1.70;1.60;;;;;;;;;;5138877;27;20235;-69
2021/06/12 03:37:54;;;;;;;1.87;1.63;;;;;;;;;;5142660;27;20239;-68
2021/06/12 03:40:22;;;;;;;1.70;1.60;;;;;;;;;;5142451;27;20200;-68
2021/06/12 03:42:50;;;;;;;1.70;1.60;;;;;;;;;;5142050;27;20220;-69
2021/06/12 03:45:21;;;;;;;3.30;1.93;;;;;;;;;;5142382;27;20208;-68
2021/06/12 03:47:48;;;;;;;2.20;1.80;;;;;;;;;;5142385;27;20204;-68
2021/06/12 03:50:18;;;;;;;1.83;1.70;;;;;;;;;;5142274;27;20209;-68
2021/06/12 03:52:46;;;;;;;2.77;1.90;;;;;;;;;;5142163;27;20327;-69
2021/06/12 03:55:13;;;;;;;2.03;1.87;;;;;;;;;;5142262;27;20215;-69
2021/06/12 03:57:40;;;;;;;1.73;1.60;;;;;;;;;;5141851;27;20716;-69
2021/06/12 04:00:09;;;;;;;2.20;1.50;;;;;;;;;;5141738;27;20208;-68
2021/06/12 04:02:47;;;;;;;1.93;1.83;;;;;;;;;;5142033;27;20708;-69
2021/06/12 04:05:15;;;;;;;4.63;1.77;;;;;;;;;;5142424;27;20207;-68
2021/06/12 04:07:43;;;;;;;2.10;1.90;;;;;;;;;;5142015;27;20232;-68
2021/06/12 04:10:11;;;;;;;2.53;2.33;;;;;;;;;;5141877;27;20561;-67
2021/06/12 04:12:38;;;;;;;3.20;2.03;;;;;;;;;;5131132;27;20220;-69
2021/06/12 04:15:07;;;;;;;1.93;1.80;;;;;;;;;;5141116;27;20210;-68
2021/06/12 04:17:34;;;;;;;2.10;1.90;;;;;;;;;;5141826;27;20708;-69
2021/06/12 04:20:02;;;;;;;2.93;1.57;;;;;;;;;;5141862;27;20609;-69
2021/06/12 04:22:29;;;;;;;4.23;1.50;;;;;;;;;;5141406;27;20226;-67
2021/06/12 04:24:57;;;;;;;4.97;1.87;;;;;;;;;;5141578;27;20233;-66
2021/06/12 04:27:25;;;;;;;3.10;1.80;;;;;;;;;;5140962;27;20207;-67
2021/06/12 04:29:52;;;;;;;1.80;1.70;;;;;;;;;;5141391;27;20201;-67
2021/06/12 04:32:19;;;;;;;1.90;1.80;;;;;;;;;;5141138;27;20230;-67
2021/06/12 04:34:47;;;;;;;1.80;1.70;;;;;;;;;;5141304;27;20215;-67
2021/06/12 04:37:14;;;;;;;1.77;1.67;;;;;;;;;;5141386;27;20650;-67
2021/06/12 04:39:41;;;;;;;2.10;1.90;;;;;;;;;;5141360;27;20200;-67
2021/06/12 04:42:10;;;;;;;1.67;1.57;;;;;;;;;;5140889;27;20220;-67
2021/06/12 04:44:37;;;;;;;3.13;1.80;;;;;;;;;;5141371;27;20209;-65
2021/06/12 04:47:04;;;;;;;1.80;1.67;;;;;;;;;;5140825;27;20261;-65
2021/06/12 04:49:32;;;;;;;3.70;2.30;;;;;;;;;;5141094;27;20723;-68
2021/06/12 04:51:59;;;;;;;2.93;1.83;;;;;;;;;;5140982;27;20223;-66
2021/06/12 04:54:26;;;;;;;3.33;1.50;;;;;;;;;;5141158;27;20210;-66
2021/06/12 04:56:53;;;;;;;2.17;1.60;;;;;;;;;;5141065;27;20263;-65
2021/06/12 04:59:22;;;;;;;2.37;1.70;;;;;;;;;;5141176;27;20259;-65
2021/06/12 05:01:49;;;;;;;1.80;1.70;;;;;;;;;;5140476;27;20234;-67
2021/06/12 05:04:16;;;;;;;2.47;1.80;;;;;;;;;;5140904;27;20205;-66
2021/06/12 05:06:43;;;;;;;5.07;1.90;;;;;;;;;;5140864;27;20212;-66
2021/06/12 05:09:11;;;;;;;3.60;1.90;;;;;;;;;;5141050;27;20675;-66
2021/06/12 05:11:38;;;;;;;2.40;2.20;;;;;;;;;;5138849;27;20219;-66
2021/06/12 05:14:05;;;;;;;2.17;1.70;;;;;;;;;;5131281;27;20712;-67
2021/06/12 05:16:35;;;;;;;1.87;1.77;;;;;;;;;;5140550;27;20238;-66
2021/06/12 05:19:02;;;;;;;1.80;1.60;;;;;;;;;;5140770;27;20206;-66
2021/06/12 05:21:31;;;;;;;1.77;1.40;;;;;;;;;;5140500;27;20220;-66
2021/06/12 05:23:59;;;;;;;2.47;1.80;;;;;;;;;;5140519;27;20204;-66
2021/06/12 05:26:26;;;;;;;2.57;1.60;;;;;;;;;;5129086;27;20655;-66
2021/06/12 05:28:53;;;;;;;3.23;1.63;;;;;;;;;;5140247;27;20252;-66
2021/06/12 05:31:21;;;;;;;2.63;1.53;;;;;;;;;;5139817;27;20239;-67
2021/06/12 05:33:50;;;;;;;3.47;2.03;;;;;;;;;;5140194;27;20223;-66
2021/06/12 05:36:17;;;;;;;2.77;1.77;;;;;;;;;;5127732;27;20280;-67
2021/06/12 05:38:44;;;;;;;1.63;1.50;;;;;;;;;;5137125;27;20662;-67
2021/06/12 05:41:12;;;;;;;5.37;2.03;;;;;;;;;;5139836;27;20608;-67
2021/06/12 05:43:39;;;;;;;2.37;1.70;;;;;;;;;;5139073;27;20253;-67
2021/06/12 05:46:07;;;;;;;1.93;1.40;;;;;;;;;;5139784;27;20566;-67
2021/06/12 05:48:34;;;;;;;4.97;1.77;;;;;;;;;;5139099;27;20208;-67
2021/06/12 05:51:02;;;;;;;3.13;1.73;;;;;;;;;;5130028;27;20616;-67
2021/06/12 05:53:30;;;;;;;1.63;1.53;;;;;;;;;;5133326;27;20226;-67
2021/06/12 05:55:57;;;;;;;2.63;1.73;;;;;;;;;;5132436;27;20208;-67
2021/06/12 05:58:24;;;;;;;1.70;1.60;;;;;;;;;;5135096;27;20200;-68
2021/06/12 06:00:52;;;;;;;2.17;1.70;;;;;;;;;;5131891;27;20200;-68
2021/06/12 06:03:19;;;;;;;3.30;1.57;;;;;;;;;;5127115;27;20287;-68
2021/06/12 06:05:47;;;;;;;2.37;1.47;;;;;;;;;;5130057;27;20256;-68
2021/06/12 06:08:15;;;;;;;2.07;1.80;;;;;;;;;;5129683;27;20655;-68
2021/06/12 06:10:42;;;;;;;3.07;1.53;;;;;;;;;;5135602;27;20204;-68
2021/06/12 06:13:10;;;;;;;3.00;1.60;;;;;;;;;;5127855;27;20588;-66
2021/06/12 06:15:37;;;;;;;4.17;2.20;;;;;;;;;;5122816;27;20236;-66
2021/06/12 06:18:04;;;;;;;2.17;1.60;;;;;;;;;;5122389;27;20202;-66
2021/06/12 06:20:31;;;;;;;3.37;2.10;;;;;;;;;;5123730;27;20213;-66
2021/06/12 06:22:58;;;;;;;3.40;1.70;;;;;;;;;;5128934;27;20251;-68
2021/06/12 06:25:28;;;;;;;2.67;1.57;;;;;;;;;;5131680;27;20293;-66
2021/06/12 06:27:55;;;;;;;1.70;1.60;;;;;;;;;;5130158;27;20208;-65
2021/06/12 06:30:22;;;;;;;1.67;1.57;;;;;;;;;;5124113;27;20254;-67
2021/06/12 06:32:50;;;;;;;2.70;1.50;;;;;;;;;;5122094;27;20284;-66
2021/06/12 06:35:17;;;;;;;5.33;1.80;;;;;;;;;;5122157;27;20634;-65
2021/06/12 06:37:45;;;;;;;1.70;1.60;;;;;;;;;;5124601;27;20212;-66
2021/06/12 06:40:12;;;;;;;4.00;1.83;;;;;;;;;;5123089;27;20233;-66
2021/06/12 06:42:41;;;;;;;2.27;1.60;;;;;;;;;;5126549;27;20224;-69
2021/06/12 06:45:09;;;;;;;3.97;1.80;;;;;;;;;;5123027;27;20609;-69
2021/06/12 06:47:36;;;;;;;5.40;1.70;;;;;;;;;;5125551;27;20205;-69
2021/06/12 06:50:04;;;;;;;2.23;1.70;;;;;;;;;;5134037;28;20238;-69
2021/06/12 06:52:31;;;;;;;2.27;1.93;;;;;;;;;;5128899;28;20228;-70
2021/06/12 06:54:58;;;;;;;6.60;1.80;;;;;;;;;;5133637;28;20278;-70
2021/06/12 06:57:26;;;;;;;1.40;1.40;;;;;;;;;;5129606;28;20567;-70
2021/06/12 06:59:55;;;;;;;2.50;1.70;;;;;;;;;;5133182;28;20215;-70
2021/06/12 07:02:22;;;;;;;1.63;1.53;;;;;;;;;;5130014;28;20285;-70
2021/06/12 07:04:49;;;;;;;2.00;1.80;;;;;;;;;;5132604;28;20201;-70
2021/06/12 07:07:17;;;;;;;1.63;1.50;;;;;;;;;;5131235;28;20648;-70
2021/06/12 07:09:44;;;;;;;4.13;1.60;;;;;;;;;;5132172;28;20206;-70
2021/06/12 07:12:11;;;;;;;1.90;1.80;;;;;;;;;;5136612;27;20220;-70
2021/06/12 07:14:40;;;;;;;5.50;1.80;;;;;;;;;;5135698;27;20231;-70
2021/06/12 07:17:09;;;;;;;2.30;1.73;;;;;;;;;;5129315;27;20221;-70
2021/06/12 07:19:36;;;;;;;2.00;1.90;;;;;;;;;;5134012;27;20563;-70
2021/06/12 07:22:04;;;;;;;4.47;2.00;;;;;;;;;;5136559;27;20223;-70
2021/06/12 07:24:31;;;;;;;4.37;1.97;;;;;;;;;;5131715;27;20599;-70
2021/06/12 07:26:58;;;;;;;2.83;1.70;;;;;;;;;;5133642;27;20208;-70
2021/06/12 07:29:26;;;;;;;2.83;1.90;;;;;;;;;;5133324;27;20207;-70
2021/06/12 07:31:53;;;;;;;2.40;2.07;;;;;;;;;;5135249;27;20266;-70
2021/06/12 07:34:22;;;;;;;3.23;1.60;;;;;;;;;;5134834;27;20234;-69
2021/06/12 07:36:49;;;;;;;2.00;1.90;;;;;;;;;;5137417;27;20202;-70
2021/06/12 07:39:16;;;;;;;2.23;1.73;;;;;;;;;;5136674;27;20210;-70
2021/06/12 07:41:44;;;;;;;2.70;2.10;;;;;;;;;;5138415;27;20334;-70
2021/06/12 07:44:11;;;;;;;5.53;1.80;;;;;;;;;;5138016;27;20240;-70
2021/06/12 07:46:38;;;;;;;1.77;1.67;;;;;;;;;;5139309;27;20207;-70
2021/06/12 07:49:07;;;;;;;4.80;2.10;;;;;;;;;;5128021;27;20232;-67
2021/06/12 07:51:36;;;;;;;2.97;1.80;;;;;;;;;;5125664;27;20229;-67
2021/06/12 07:54:03;;;;;;;1.93;1.77;;;;;;;;;;5127795;27;20272;-66
2021/06/12 07:56:34;;;;;;;2.70;1.70;;;;;;;;;;5127206;27;20280;-66
2021/06/12 07:59:01;;;;;;;2.37;1.73;;;;;;;;;;5128037;27;20242;-66
2021/06/12 08:01:28;;;;;;;2.33;1.63;;;;;;;;;;5129717;27;20283;-66
2021/06/12 08:03:56;;;;;;;2.97;1.90;;;;;;;;;;5125203;27;20204;-67
2021/06/12 08:06:23;;;;;;;3.40;1.80;;;;;;;;;;5131719;27;20656;-66
2021/06/12 08:08:52;;;;;;;1.90;1.80;;;;;;;;;;5136138;27;20192;-66
2021/06/12 08:11:19;;;;;;;2.40;1.60;;;;;;;;;;5135291;27;20220;-67
2021/06/12 08:13:46;;;;;;;2.90;1.67;;;;;;;;;;5132113;27;20213;-66
2021/06/12 08:16:13;;;;;;;4.73;1.33;;;;;;;;;;5133274;27;20197;-66
2021/06/12 08:18:41;;;;;;;4.17;2.40;;;;;;;;;;5132053;27;20249;-66
2021/06/12 08:21:08;;;;;;;5.57;4.43;;;;;;;;;;5131463;27;20209;-65
2021/06/12 08:23:35;;;;;;;5.00;3.13;;;;;;;;;;5130079;27;20697;-66
2021/06/12 08:26:04;;;;;;;2.03;1.80;;;;;;;;;;5132537;27;20197;-66
2021/06/12 08:28:31;;;;;;;2.00;1.50;;;;;;;;;;5131431;27;20197;-67
2021/06/12 08:30:58;;;;;;;1.43;1.30;;;;;;;;;;5132392;27;20228;-67
2021/06/12 08:33:26;;;;;;;4.30;1.53;;;;;;;;;;5131359;27;20748;-67
2021/06/12 08:35:53;;;;;;;3.70;1.73;;;;;;;;;;5133352;27;20227;-68
2021/06/12 08:38:24;;;;;;;1.80;1.47;;;;;;;;;;5125729;27;20648;-68
2021/06/12 08:40:51;;;;;;;2.83;1.30;;;;;;;;;;5126398;27;20205;-68
2021/06/12 08:43:20;;;;;;;1.63;1.53;;;;;;;;;;5127135;27;20211;-68
2021/06/12 08:45:48;;;;;;;2.83;1.50;;;;;;;;;;5131499;27;20207;-69
2021/06/12 08:48:16;;;;;;;1.30;1.30;;;;;;;;;;5130286;27;20197;-67
2021/06/12 08:50:44;;;;;;;3.20;1.90;;;;;;;;;;5132168;27;20716;-68
2021/06/12 08:53:12;;;;;;;2.73;1.73;;;;;;;;;;5131144;27;20281;-68
2021/06/12 08:55:39;;;;;;;4.03;1.77;;;;;;;;;;5133863;27;20271;-68
2021/06/12 08:58:07;;;;;;;1.93;1.60;;;;;;;;;;5132797;27;20206;-68
2021/06/12 09:00:35;;;;;;;3.50;1.80;;;;;;;;;;5135566;27;20208;-69
2021/06/12 09:03:07;;;;;;;2.97;1.63;;;;;;;;;;5134218;27;20227;-68
2021/06/12 09:05:38;;;;;;;2.20;2.00;;;;;;;;;;5137394;27;20647;-68
2021/06/12 09:08:06;;;;;;;1.80;1.20;;;;;;;;;;5136567;27;20212;-68
2021/06/12 09:10:34;;;;;;;1.73;1.63;;;;;;;;;;5138100;27;20205;-68
2021/06/12 09:13:01;;;;;;;3.57;2.77;;;;;;;;;;5132514;27;20703;-68
2021/06/12 09:15:28;;;;;;;1.73;1.63;;;;;;;;;;5135314;27;20619;-68
2021/06/12 09:17:57;;;;;;;3.73;1.90;;;;;;;;;;5137271;27;20259;-68
2021/06/12 09:20:41;;;;;;;5.73;1.83;;;;;;;;;;5129746;27;20231;-68
2021/06/12 09:23:09;;;;;;;3.20;1.90;;;;;;;;;;5133424;27;20244;-68
2021/06/12 09:25:37;;;;;;;3.23;1.50;;;;;;;;;;5133309;27;20203;-68
2021/06/12 09:28:04;;;;;;;3.07;2.13;;;;;;;;;;5137928;27;20197;-68
2021/06/12 09:30:32;;;;;;;3.07;2.00;;;;;;;;;;5134184;27;20292;-68
2021/06/12 09:33:01;;;;;;;3.17;1.63;;;;;;;;;;5132781;27;20216;-68
2021/06/12 09:35:32;;;;;;;15.13;9.20;;;;;;;;;;5138803;27;20237;-68
2021/06/12 09:37:59;;;;;;;8.60;3.77;;;;;;;;;;5130770;27;20615;-68
2021/06/12 09:40:30;;;;;;;2.07;1.87;;;;;;;;;;5135062;27;20210;-68
2021/06/12 09:42:58;;;;;;;3.27;1.90;;;;;;;;;;5128694;27;20298;-67
2021/06/12 09:45:26;;;;;;;2.90;2.17;;;;;;;;;;5134999;27;20206;-68
2021/06/12 09:48:08;;;;;;;2.00;1.90;;;;;;;;;;5137160;27;20236;-68
2021/06/12 09:50:35;;;;;;;3.77;1.70;;;;;;;;;;5135385;27;20653;-68
2021/06/12 09:53:10;;;;;;;2.17;1.90;;;;;;;;;;5135043;27;20223;-68
2021/06/12 09:55:38;;;;;;;2.67;1.80;;;;;;;;;;5133753;27;20278;-71
2021/06/12 09:58:05;;;;;;;3.90;1.90;;;;;;;;;;5131367;27;20199;-69
2021/06/12 10:00:34;;;;;;;3.53;3.23;;;;;;;;;;5132295;27;20203;-69
2021/06/12 10:03:02;;;;;;;3.17;2.27;;;;;;;;;;5130911;27;20221;-69
2021/06/12 10:05:30;;;;;;;2.00;1.90;;;;;;;;;;5136240;27;20199;-69
2021/06/12 10:07:57;;;;;;;1.97;1.87;;;;;;;;;;5126281;27;20575;-70
2021/06/12 10:10:25;;;;;;;2.37;2.10;;;;;;;;;;5126598;27;20228;-70
2021/06/12 10:12:54;;;;;;;2.00;1.70;;;;;;;;;;5131187;27;20219;-69
2021/06/12 10:15:21;;;;;;;2.43;1.70;;;;;;;;;;5132431;27;20228;-69
2021/06/12 10:17:49;;;;;;;1.97;1.87;;;;;;;;;;5133826;27;20225;-68
2021/06/12 10:20:18;;;;;;;2.60;1.83;;;;;;;;;;5132416;27;20195;-70
2021/06/12 10:22:46;;;;;;;2.00;1.90;;;;;;;;;;5132147;27;20246;-69
2021/06/12 10:25:15;;;;;;;2.97;1.57;;;;;;;;;;5128247;27;20193;-69
2021/06/12 10:27:43;;;;;;;2.03;1.83;;;;;;;;;;5128620;27;20659;-69
2021/06/12 10:30:12;;;;;;;3.50;1.70;;;;;;;;;;5132071;27;20264;-69
2021/06/12 10:32:43;;;;;;;3.03;1.87;;;;;;;;;;5132114;27;20374;-69
2021/06/12 10:35:11;;;;;;;2.10;1.67;;;;;;;;;;5132122;27;20226;-67
2021/06/12 10:37:53;;;;;;;2.77;1.80;;;;;;;;;;5132484;27;20243;-68
2021/06/12 10:40:34;;;;;;;1.87;1.77;;;;;;;;;;5130068;27;20202;-68
2021/06/12 10:43:12;;;;;;;2.03;1.83;;;;;;;;;;5121419;27;20258;-68
2021/06/12 10:45:39;;;;;;;2.03;1.93;;;;;;;;;;5122184;27;20216;-68
2021/06/12 10:48:07;;;;;;;2.13;1.67;;;;;;;;;;5124034;27;20203;-68
2021/06/12 10:50:36;;;;;;;2.53;2.00;;;;;;;;;;5121615;27;20664;-68
2021/06/12 10:53:32;;;;;;;2.80;2.20;;;;;;;;;;5126791;28;20224;-68
2021/06/12 10:56:01;;;;;;;2.47;1.80;;;;;;;;;;5123299;28;20227;-69
2021/06/12 10:58:41;;;;;;;2.73;1.90;;;;;;;;;;5128027;28;20210;-71
2021/06/12 11:01:09;;;;;;;2.53;2.33;;;;;;;;;;5129403;28;20241;-69
2021/06/12 11:03:44;;;;;;;2.93;1.70;;;;;;;;;;5132353;28;20203;-69
2021/06/12 11:06:31;;;;;;;2.95;2.13;;;;;;;;;;5132444;28;20227;-68
2021/06/12 11:09:17;;;;;;;3.85;1.90;;;;;;;;;;5137497;28;20272;-69
2021/06/12 11:11:46;;;;;;;2.43;1.83;;;;;;;;;;5135323;28;20717;-69
2021/06/12 11:14:30;;;;;;;3.40;2.07;;;;;;;;;;5131657;28;20561;-70
2021/06/12 11:17:16;;;;;;;2.50;1.80;;;;;;;;;;5138521;28;20259;-70
2021/06/12 11:19:44;;;;;;;1.70;1.60;;;;;;;;;;5126735;28;20236;-69
2021/06/12 11:22:29;;;;;;;4.40;2.00;;;;;;;;;;5137998;28;20233;-70
2021/06/12 11:24:57;;;;;;;2.20;2.00;;;;;;;;;;5126405;28;20200;-71
2021/06/12 11:27:29;;;;;;;2.23;1.80;;;;;;;;;;5138137;28;20230;-70
2021/06/12 11:30:09;;;;;;;1.70;1.60;;;;;;;;;;5138175;28;20276;-68
2021/06/12 11:32:43;;;;;;;2.00;1.90;;;;;;;;;;5138489;28;20252;-70
2021/06/12 11:35:11;;;;;;;1.90;1.80;;;;;;;;;;5138300;28;20231;-71
2021/06/12 11:37:50;;;;;;;2.00;1.90;;;;;;;;;;5138392;28;20234;-71
2021/06/12 11:40:21;;;;;;;3.33;2.00;;;;;;;;;;5138455;28;20209;-69
2021/06/12 11:42:51;;;;;;;2.57;1.90;;;;;;;;;;5137753;28;20224;-70
2021/06/12 11:45:20;;;;;;;1.80;1.70;;;;;;;;;;5137871;28;20199;-70
2021/06/12 11:47:48;;;;;;;2.00;1.80;;;;;;;;;;5137990;28;20591;-70
2021/06/12 11:50:16;;;;;;;1.87;1.67;;;;;;;;;;5138049;28;20609;-70
2021/06/12 11:52:51;;;;;;;1.77;1.67;;;;;;;;;;5137672;28;20224;-70
2021/06/12 11:55:20;;;;;;;1.90;1.80;;;;;;;;;;5137919;28;20225;-70
2021/06/12 11:57:48;;;;;;;2.70;1.93;;;;;;;;;;5140022;27;20248;-70
2021/06/12 12:00:28;;;;;;;1.87;1.70;;;;;;;;;;5128291;27;20252;-70
2021/06/12 12:03:04;;;;;;;1.93;1.83;;;;;;;;;;5141743;27;20635;-71
2021/06/12 12:05:32;;;;;;;2.90;1.80;;;;;;;;;;5141745;27;20204;-71
2021/06/12 12:07:59;;;;;;;2.10;1.90;;;;;;;;;;5141670;27;20205;-70
2021/06/12 12:10:27;;;;;;;1.63;1.57;;;;;;;;;;5141685;27;20203;-70
2021/06/12 12:12:54;;;;;;;4.00;1.90;;;;;;;;;;5133356;27;20254;-70
2021/06/12 12:15:40;;;;;;;3.23;1.53;;;;;;;;;;5141463;27;20223;-71
2021/06/12 12:18:08;;;;;;;1.80;1.70;;;;;;;;;;5141242;27;20207;-71
2021/06/12 12:20:39;;;;;;;2.27;1.90;;;;;;;;;;5141370;27;20208;-70
2021/06/12 12:23:23;;;;;;;2.50;1.53;;;;;;;;;;5141010;27;20236;-69
2021/06/12 12:25:52;;;;;;;2.20;1.92;;;;;;;;;;5141264;27;20225;-70
2021/06/12 12:28:21;;;;;;;1.80;1.70;;;;;;;;;;5140999;27;20204;-70
2021/06/12 12:30:50;;;;;;;1.65;1.55;;;;;;;;;;5140944;27;20705;-70
2021/06/12 12:33:17;;;;;;;1.87;1.73;;;;;;;;;;5141136;27;20228;-70
2021/06/12 12:35:45;;;;;;;1.83;1.73;;;;;;;;;;5141507;27;20227;-70
2021/06/12 12:38:17;;;;;;;2.27;1.70;;;;;;;;;;5140744;27;20222;-70
2021/06/12 12:40:45;;;;;;;2.63;1.90;;;;;;;;;;5140715;27;20204;-70
2021/06/12 12:43:13;;;;;;;1.93;1.83;;;;;;;;;;5140369;27;20222;-70
2021/06/12 12:45:41;;;;;;;2.17;1.87;;;;;;;;;;5140736;27;20203;-71
2021/06/12 12:48:13;;;;;;;2.43;1.60;;;;;;;;;;5140765;27;20207;-71
2021/06/12 12:50:41;;;;;;;3.30;2.10;;;;;;;;;;5141200;27;20209;-71
2021/06/12 12:53:09;;;;;;;4.87;2.17;;;;;;;;;;5140661;27;20274;-71
2021/06/12 12:55:37;;;;;;;1.57;1.47;;;;;;;;;;5140685;27;20231;-71
2021/06/12 12:58:04;;;;;;;1.83;1.73;;;;;;;;;;5140166;27;20205;-70
2021/06/12 13:00:33;;;;;;;1.73;1.63;;;;;;;;;;5140759;27;20211;-70
2021/06/12 13:03:02;;;;;;;1.80;1.70;;;;;;;;;;5140248;27;20289;-71
2021/06/12 13:05:36;;;;;;;1.90;1.80;;;;;;;;;;5140894;27;20202;-70
2021/06/12 13:08:04;;;;;;;2.53;1.50;;;;;;;;;;5139860;27;20213;-70
2021/06/12 13:10:32;;;;;;;2.67;1.80;;;;;;;;;;5140435;27;20213;-70
2021/06/12 13:13:00;;;;;;;1.85;1.75;;;;;;;;;;5132281;27;20222;-69
2021/06/12 13:15:28;;;;;;;1.57;1.47;;;;;;;;;;5140010;27;20297;-69
2021/06/12 13:18:13;;;;;;;1.70;1.60;;;;;;;;;;5140113;27;20207;-69
2021/06/12 13:20:45;;;;;;;2.38;1.65;;;;;;;;;;5140074;27;20663;-69
2021/06/12 13:23:24;;;;;;;1.73;1.63;;;;;;;;;;5139975;27;20227;-69
2021/06/12 13:26:13;;;;;;;1.90;1.73;;;;;;;;;;5140012;27;20198;-69
2021/06/12 13:28:40;;;;;;;3.25;1.90;;;;;;;;;;5139719;27;20256;-69
2021/06/12 13:31:12;;;;;;;2.80;1.63;;;;;;;;;;5139848;27;20296;-71
2021/06/12 13:33:39;;;;;;;1.40;1.40;;;;;;;;;;5139946;27;20211;-69
2021/06/12 13:36:10;;;;;;;1.60;1.50;;;;;;;;;;5140127;27;20222;-69
2021/06/12 13:38:37;;;;;;;1.50;1.20;;;;;;;;;;5140359;27;20211;-70
2021/06/12 13:41:05;;;;;;;1.73;1.60;;;;;;;;;;5140199;27;20200;-70
2021/06/12 13:43:34;;;;;;;1.75;1.65;;;;;;;;;;5139960;27;20203;-69
2021/06/12 13:46:05;;;;;;;1.52;1.42;;;;;;;;;;5139554;27;20200;-69
2021/06/12 13:48:33;;;;;;;2.88;1.38;;;;;;;;;;5139661;27;20203;-69
2021/06/12 13:51:00;;;;;;;1.73;1.30;;;;;;;;;;5139638;27;20650;-69
2021/06/12 13:53:39;;;;;;;1.73;1.65;;;;;;;;;;5139528;27;20283;-68
2021/06/12 13:56:06;;;;;;;1.70;1.40;;;;;;;;;;5139468;27;20219;-70
2021/06/12 13:58:33;;;;;;;2.10;1.50;;;;;;;;;;5138722;27;20200;-70
2021/06/12 14:01:01;;;;;;;2.53;1.58;;;;;;;;;;5139329;27;20200;-70
2021/06/12 14:03:28;;;;;;;2.40;1.90;;;;;;;;;;5125474;27;20227;-70
2021/06/12 14:05:55;;;;;;;1.60;1.50;;;;;;;;;;5139399;27;20711;-71
2021/06/12 14:08:22;;;;;;;1.48;1.38;;;;;;;;;;5139356;27;20268;-70
2021/06/12 14:10:51;;;;;;;1.98;1.65;;;;;;;;;;5139282;27;20231;-70
2021/06/12 14:13:19;;;;;;;2.15;2.05;;;;;;;;;;5138414;27;20200;-70
2021/06/12 14:15:46;;;;;;;1.95;1.85;;;;;;;;;;5139018;27;20249;-70
2021/06/12 14:18:13;;;;;;;3.08;1.42;;;;;;;;;;5139289;27;20200;-70
2021/06/12 14:20:41;;;;;;;1.77;1.67;;;;;;;;;;5137954;27;20260;-70
2021/06/12 14:23:08;;;;;;;1.38;1.38;;;;;;;;;;5139522;27;20254;-70
2021/06/12 14:25:38;;;;;;;1.58;1.45;;;;;;;;;;5139320;27;20221;-70
2021/06/12 14:28:06;;;;;;;2.97;1.58;;;;;;;;;;5138631;27;20225;-70
2021/06/12 14:30:35;;;;;;;2.22;1.40;;;;;;;;;;5138724;27;20231;-70
2021/06/12 14:33:03;;;;;;;2.35;1.85;;;;;;;;;;5138903;27;20232;-70
2021/06/12 14:35:30;;;;;;;3.42;1.40;;;;;;;;;;5138724;27;20199;-70
2021/06/12 14:37:58;;;;;;;1.75;1.65;;;;;;;;;;5138862;27;20208;-70
2021/06/12 14:40:26;;;;;;;1.50;1.35;;;;;;;;;;5138828;27;20208;-70
2021/06/12 14:42:53;;;;;;;1.50;1.40;;;;;;;;;;5138515;27;20224;-70
2021/06/12 14:45:23;;;;;;;1.48;1.38;;;;;;;;;;5138758;27;20206;-70
2021/06/12 14:47:50;;;;;;;3.35;1.48;;;;;;;;;;5138803;27;20733;-70
2021/06/12 14:50:18;;;;;;;1.15;1.15;;;;;;;;;;5138798;27;20203;-69
2021/06/12 14:52:45;;;;;;;1.50;1.23;;;;;;;;;;5139345;27;20223;-68
2021/06/12 14:55:12;;;;;;;2.42;1.42;;;;;;;;;;5139080;28;20202;-68